createdAt,value
2023-04-25T00:01:57.736Z,4.53
2023-04-25T00:04:24.720Z,4.47
2023-04-25T00:06:53.280Z,5.95
2023-04-25T00:09:20.130Z,4.70
2023-04-25T00:11:46.926Z,4.60
2023-04-25T00:14:13.766Z,7.22
2023-04-25T00:16:42.327Z,4.32
2023-04-25T00:19:10.540Z,4.88
2023-04-25T00:21:38.728Z,4.00
2023-04-25T00:24:05.871Z,3.50
2023-04-25T00:26:32.716Z,5.10
2023-04-25T00:28:59.671Z,5.95
2023-04-25T00:31:26.456Z,6.40
2023-04-25T00:33:54.120Z,4.90
2023-04-25T00:36:21.036Z,5.38
2023-04-25T00:38:47.806Z,5.75
2023-04-25T00:41:15.036Z,5.78
2023-04-25T00:43:42.429Z,5.55
2023-04-25T00:46:09.415Z,5.78
2023-04-25T00:48:36.251Z,4.80
2023-04-25T00:51:03.253Z,7.60
2023-04-25T00:53:33.072Z,6.20
2023-04-25T00:56:00.091Z,5.45
2023-04-25T00:58:27.058Z,4.70
2023-04-25T01:00:53.971Z,5.22
2023-04-25T01:03:21.809Z,4.82
2023-04-25T01:05:49.217Z,5.22
2023-04-25T01:08:16.341Z,5.38
2023-04-25T01:10:43.530Z,5.70
2023-04-25T01:13:10.746Z,6.38
2023-04-25T01:15:37.597Z,5.03
2023-04-25T01:18:06.542Z,4.43
2023-04-25T01:20:34.087Z,5.25
2023-04-25T01:23:01.631Z,5.13
2023-04-25T01:25:28.754Z,4.88
2023-04-25T01:27:55.926Z,4.35
2023-04-25T01:30:22.794Z,6.88
2023-04-25T01:32:50.224Z,5.18
2023-04-25T01:35:17.108Z,5.25
2023-04-25T01:37:44.748Z,4.88
2023-04-25T01:40:13.196Z,8.13
2023-04-25T01:42:43.104Z,5.85
2023-04-25T01:45:11.891Z,6.50
2023-04-25T01:47:40.958Z,5.97
2023-04-25T01:50:09.204Z,6.05
2023-04-25T01:52:36.215Z,6.90
2023-04-25T01:55:03.554Z,5.55
2023-04-25T01:57:30.594Z,5.65
2023-04-25T02:00:02.460Z,5.50
2023-04-25T02:02:29.464Z,4.30
2023-04-25T02:04:57.350Z,5.93
2023-04-25T02:07:24.355Z,3.35
2023-04-25T02:09:51.195Z,4.82
2023-04-25T02:12:18.149Z,5.80
2023-04-25T02:14:45.136Z,3.53
2023-04-25T02:17:13.744Z,5.43
2023-04-25T02:19:40.808Z,8.63
2023-04-25T02:22:07.738Z,5.18
2023-04-25T02:24:35.807Z,6.43
2023-04-25T02:27:02.861Z,4.80
2023-04-25T02:29:30.718Z,5.28
2023-04-25T02:31:57.589Z,6.45
2023-04-25T02:34:24.433Z,5.53
2023-04-25T02:36:53.969Z,9.15
2023-04-25T02:39:23.210Z,5.78
2023-04-25T02:41:50.056Z,8.25
2023-04-25T02:44:17.002Z,5.40
2023-04-25T02:46:43.869Z,6.28
2023-04-25T02:49:10.726Z,6.82
2023-04-25T02:51:37.675Z,6.80
2023-04-25T02:54:04.964Z,4.72
2023-04-25T02:56:31.807Z,6.97
2023-04-25T02:58:58.607Z,6.35
2023-04-25T03:01:25.587Z,5.32
2023-04-25T03:03:52.619Z,5.63
2023-04-25T03:06:19.672Z,4.22
2023-04-25T03:08:46.511Z,7.05
2023-04-25T03:11:13.436Z,5.90
2023-04-25T03:13:40.359Z,6.47
2023-04-25T03:16:07.317Z,5.47
2023-04-25T03:18:34.166Z,5.93
2023-04-25T03:21:01.070Z,8.02
2023-04-25T03:23:27.910Z,5.35
2023-04-25T03:25:54.831Z,4.95
2023-04-25T03:28:21.599Z,4.38
2023-04-25T03:30:48.369Z,4.03
2023-04-25T03:33:15.157Z,5.00
2023-04-25T03:35:42.120Z,3.35
2023-04-25T03:38:09.282Z,2.78
2023-04-25T03:40:36.079Z,3.90
2023-04-25T03:43:02.908Z,2.83
2023-04-25T03:45:29.716Z,6.47
2023-04-25T03:47:56.613Z,6.05
2023-04-25T03:50:23.666Z,2.60
2023-04-25T03:52:50.883Z,3.45
2023-04-25T03:55:17.841Z,3.40
2023-04-25T03:57:44.764Z,2.80
2023-04-25T04:00:12.361Z,3.35
2023-04-25T04:02:40.607Z,2.72
2023-04-25T04:05:09.007Z,4.32
2023-04-25T04:07:40.718Z,3.08
2023-04-25T04:10:08.683Z,3.65
2023-04-25T04:12:35.592Z,3.20
2023-04-25T04:15:04.775Z,7.10
2023-04-25T04:17:31.648Z,3.72
2023-04-25T04:19:59.154Z,5.07
2023-04-25T04:22:25.978Z,4.70
2023-04-25T04:24:53.139Z,4.50
2023-04-25T04:27:20.537Z,4.78
2023-04-25T04:29:47.891Z,4.25
2023-04-25T04:32:15.747Z,3.40
2023-04-25T04:34:43.120Z,2.50
2023-04-25T04:37:11.846Z,3.92
2023-04-25T04:39:39.062Z,2.53
2023-04-25T04:42:07.182Z,3.70
2023-04-25T05:23:01.779Z,4.43
2023-04-25T05:25:28.912Z,7.03
2023-04-25T05:27:55.840Z,5.53
2023-04-25T05:30:22.698Z,5.15
2023-04-25T05:32:49.657Z,5.15
2023-04-25T05:35:16.518Z,6.50
2023-04-25T05:37:43.670Z,4.68
2023-04-25T05:40:14.257Z,5.00
2023-04-25T05:42:41.128Z,6.57
2023-04-25T05:45:08.293Z,6.68
2023-04-25T05:47:35.212Z,5.70
2023-04-25T05:50:02.099Z,5.78
2023-04-25T05:52:28.905Z,6.03
2023-04-25T05:54:56.017Z,3.63
2023-04-25T05:57:28.789Z,4.22
2023-04-25T05:59:55.763Z,4.97
2023-04-25T06:02:22.767Z,9.23
2023-04-25T06:04:54.908Z,8.18
2023-04-25T06:07:21.825Z,7.53
2023-04-25T06:09:48.652Z,4.03
2023-04-25T06:12:15.501Z,5.32
2023-04-25T06:14:42.611Z,4.57
2023-04-25T06:17:09.451Z,7.82
2023-04-25T06:19:37.442Z,6.30
2023-04-25T06:22:04.557Z,8.18
2023-04-25T06:24:31.413Z,6.07
2023-04-25T06:26:58.192Z,5.32
2023-04-25T06:29:25.002Z,5.13
2023-04-25T06:31:52.088Z,5.50
2023-04-25T06:34:19.035Z,5.07
2023-04-25T06:36:45.819Z,6.03
2023-04-25T06:39:12.614Z,5.03
2023-04-25T06:41:39.429Z,6.65
2023-04-25T06:44:08.437Z,4.38
2023-04-25T06:46:35.342Z,5.00
2023-04-25T06:49:02.408Z,4.35
2023-04-25T06:51:30.832Z,7.63
2023-04-25T06:54:01.137Z,4.90
2023-04-25T06:56:30.672Z,4.45
2023-04-25T06:58:57.493Z,3.17
2023-04-25T07:01:24.441Z,2.45
2023-04-25T07:03:53.622Z,4.30
2023-04-25T07:06:20.592Z,5.22
2023-04-25T07:08:47.416Z,4.97
2023-04-25T07:11:14.328Z,4.53
2023-04-25T07:13:41.140Z,3.13
2023-04-25T07:16:07.919Z,3.17
2023-04-25T07:18:34.669Z,8.02
2023-04-25T07:21:01.456Z,7.53
2023-04-25T07:23:28.262Z,6.07
2023-04-25T07:25:55.208Z,4.90
2023-04-25T07:28:24.046Z,5.57
2023-04-25T07:30:50.848Z,3.60
2023-04-25T07:33:18.138Z,4.47
2023-04-25T07:35:44.898Z,5.03
2023-04-25T07:38:11.828Z,2.95
2023-04-25T07:40:38.788Z,4.43
2023-04-25T07:43:08.676Z,2.28
2023-04-25T07:45:35.562Z,4.22
2023-04-25T07:48:02.590Z,2.38
2023-04-25T07:50:29.493Z,3.55
2023-04-25T07:52:56.680Z,3.25
2023-04-25T07:55:23.599Z,3.15
2023-04-25T07:57:50.591Z,6.78
2023-04-25T08:00:17.704Z,4.75
2023-04-25T08:02:44.531Z,4.40
2023-04-25T08:05:13.025Z,4.97
2023-04-25T08:07:40.020Z,3.30
2023-04-25T08:10:07.801Z,5.13
2023-04-25T08:12:34.830Z,5.18
2023-04-25T08:15:01.587Z,4.38
2023-04-25T08:17:28.601Z,2.90
2023-04-25T08:19:56.507Z,2.78
2023-04-25T08:22:23.455Z,3.22
2023-04-25T08:24:50.238Z,3.63
2023-04-25T08:27:17.068Z,8.88
2023-04-25T08:29:43.915Z,2.17
2023-04-25T08:32:10.764Z,4.03
2023-04-25T08:34:39.051Z,2.83
2023-04-25T08:37:06.737Z,4.22
2023-04-25T08:39:33.492Z,2.22
2023-04-25T08:42:02.681Z,3.42
2023-04-25T08:44:29.654Z,1.90
2023-04-25T08:46:57.768Z,2.45
2023-04-25T08:49:25.084Z,4.18
2023-04-25T08:51:53.474Z,4.80
2023-04-25T08:54:35.424Z,3.10
2023-04-25T08:57:05.250Z,4.05
2023-04-25T08:59:33.642Z,2.42
2023-04-25T09:02:01.663Z,1.55
2023-04-25T09:04:28.790Z,1.85
2023-04-25T09:06:55.663Z,2.88
2023-04-25T09:09:22.687Z,2.78
2023-04-25T09:11:49.775Z,4.10
2023-04-25T09:14:18.764Z,2.42
2023-04-25T09:16:57.599Z,2.95
2023-04-25T09:19:38.966Z,4.10
2023-04-25T09:22:07.468Z,2.95
2023-04-25T09:24:46.867Z,3.90
2023-04-25T09:27:19.474Z,3.35
2023-04-25T09:29:47.352Z,4.78
2023-04-25T09:32:22.105Z,2.30
2023-04-25T09:34:51.896Z,3.90
2023-04-25T09:37:29.466Z,4.13
2023-04-25T09:40:03.530Z,1.92
2023-04-25T09:42:32.938Z,4.97
2023-04-25T09:45:02.922Z,5.40
2023-04-25T09:47:30.327Z,3.47
2023-04-25T09:50:40.764Z,4.93
2023-04-25T09:53:38.930Z,1.95
2023-04-25T09:56:23.350Z,3.72
2023-04-25T09:58:53.779Z,2.53
2023-04-25T10:01:22.174Z,2.70
2023-04-25T10:03:51.646Z,3.22
2023-04-25T10:06:22.515Z,3.13
2023-04-25T10:08:52.287Z,1.35
2023-04-25T10:11:19.492Z,2.67
2023-04-25T10:13:47.081Z,2.22
2023-04-25T10:16:14.635Z,2.92
2023-04-25T10:18:41.736Z,3.22
2023-04-25T10:21:08.785Z,2.50
2023-04-25T10:23:38.963Z,1.10
2023-04-25T10:26:05.910Z,2.65
2023-04-25T10:28:56.490Z,1.45
2023-04-25T10:31:23.463Z,2.20
2023-04-25T10:33:50.830Z,3.63
2023-04-25T10:36:23.435Z,1.75
2023-04-25T10:38:51.956Z,3.72
2023-04-25T10:41:20.685Z,2.13
2023-04-25T10:43:49.082Z,4.88
2023-04-25T10:46:35.864Z,1.60
2023-04-25T10:49:04.086Z,2.65
2023-04-25T10:51:50.974Z,3.13
2023-04-25T10:54:21.341Z,3.45
2023-04-25T10:56:51.649Z,1.52
2023-04-25T10:59:21.406Z,2.30
2023-04-25T11:01:52.385Z,0.95
2023-04-25T11:04:34.961Z,1.33
2023-04-25T11:07:12.388Z,3.95
2023-04-25T11:09:42.388Z,1.02
2023-04-25T11:12:12.590Z,2.80
2023-04-25T11:17:10.497Z,2.67
2023-04-25T11:19:37.380Z,6.25
2023-04-25T11:22:04.848Z,2.67
2023-04-25T11:24:36.009Z,4.40
2023-04-25T11:27:04.800Z,2.90
2023-04-25T11:29:33.256Z,3.05
2023-04-25T11:32:01.166Z,3.42
2023-04-25T11:34:31.600Z,6.75
2023-04-25T11:36:59.123Z,3.33
2023-04-25T11:39:27.022Z,4.03
2023-04-25T11:41:54.867Z,2.60
2023-04-25T11:44:22.818Z,4.15
2023-04-25T11:46:49.887Z,2.78
2023-04-25T11:49:19.143Z,3.22
2023-04-25T11:51:48.340Z,4.15
2023-04-25T11:54:15.269Z,1.30
2023-04-25T11:56:46.285Z,1.67
2023-04-25T11:59:14.242Z,3.42
2023-04-25T12:01:48.687Z,2.75
2023-04-25T12:04:19.404Z,2.53
2023-04-25T12:06:49.134Z,3.20
2023-04-25T12:09:22.453Z,4.65
2023-04-25T12:11:53.556Z,3.22
2023-04-25T12:14:34.821Z,2.80
2023-04-25T12:17:07.381Z,1.13
2023-04-25T12:19:35.961Z,3.33
2023-04-25T12:22:04.302Z,2.95
2023-04-25T12:24:36.291Z,4.38
2023-04-25T12:27:09.273Z,3.97
2023-04-25T12:29:48.827Z,2.53
2023-04-25T12:32:16.960Z,2.72
2023-04-25T12:34:43.860Z,3.60
2023-04-25T12:37:10.830Z,3.20
2023-04-25T12:39:37.757Z,1.88
2023-04-25T12:42:06.189Z,1.58
2023-04-25T12:44:35.346Z,1.45
2023-04-25T12:47:02.410Z,4.57
2023-04-25T12:49:29.318Z,2.08
2023-04-25T12:51:56.130Z,1.83
2023-04-25T12:54:22.821Z,1.00
2023-04-25T12:56:49.676Z,1.92
2023-04-25T12:59:16.483Z,1.42
2023-04-25T13:01:43.925Z,2.13
2023-04-25T13:04:10.963Z,0.73
2023-04-25T13:06:37.918Z,1.25
2023-04-25T13:09:04.739Z,1.73
2023-04-25T13:11:31.906Z,1.20
2023-04-25T13:13:59.007Z,1.35
2023-04-25T13:16:26.051Z,1.98
2023-04-25T13:18:52.789Z,2.22
2023-04-25T13:21:19.527Z,1.52
2023-04-25T13:23:47.695Z,2.05
2023-04-25T13:26:14.630Z,2.30
2023-04-25T13:28:43.570Z,4.05
2023-04-25T13:31:11.697Z,2.15
2023-04-25T13:33:38.501Z,2.17
2023-04-25T13:36:05.438Z,3.00
2023-04-25T13:38:32.189Z,2.35
2023-04-25T13:40:59.479Z,2.40
2023-04-25T13:43:26.407Z,2.30
2023-04-25T13:46:02.461Z,2.47
2023-04-25T13:54:26.971Z,3.00
2023-04-25T13:57:00.386Z,1.92
2023-04-25T14:00:24.456Z,1.77
2023-04-25T14:03:01.913Z,1.80
2023-04-25T14:09:49.739Z,2.90
2023-04-25T14:12:17.399Z,3.55
2023-04-25T14:14:49.218Z,2.25
2023-04-25T14:17:16.122Z,1.58
2023-04-25T14:19:46.905Z,1.35
2023-04-25T14:22:15.122Z,1.88
2023-04-25T14:24:46.427Z,1.98
2023-04-25T14:27:13.318Z,1.33
2023-04-25T14:29:40.096Z,1.63
2023-04-25T14:32:06.929Z,2.13
2023-04-25T14:34:33.699Z,2.00
2023-04-25T14:37:01.718Z,5.28
2023-04-25T14:39:28.518Z,1.77
2023-04-25T14:41:55.351Z,2.67
2023-04-25T14:44:22.041Z,2.55
2023-04-25T14:46:49.022Z,1.77
2023-04-25T14:49:15.951Z,1.88
2023-04-25T14:51:42.647Z,2.33
2023-04-25T14:54:09.402Z,2.75
2023-04-25T14:56:36.513Z,2.05
2023-04-25T14:59:03.260Z,2.15
2023-04-25T15:01:30.007Z,2.10
2023-04-25T15:03:58.534Z,2.15
2023-04-25T15:06:29.642Z,2.92
2023-04-25T15:08:56.617Z,2.47
2023-04-25T15:11:23.442Z,3.08
2023-04-25T15:13:50.455Z,2.95
2023-04-25T15:16:17.550Z,3.20
2023-04-25T15:18:44.244Z,3.65
2023-04-25T15:21:11.188Z,5.32
2023-04-25T15:23:39.047Z,3.63
2023-04-25T15:26:05.935Z,3.25
2023-04-25T15:28:34.647Z,4.40
2023-04-25T15:31:01.667Z,4.05
2023-04-25T15:33:28.513Z,4.45
2023-04-25T15:35:58.370Z,5.40
2023-04-25T15:38:25.232Z,4.53
2023-04-25T15:40:53.182Z,3.70
2023-04-25T15:43:19.900Z,4.68
2023-04-25T15:45:47.056Z,4.53
2023-04-25T15:48:14.036Z,5.47
2023-04-25T15:50:42.367Z,3.85
2023-04-25T15:53:09.237Z,3.30
2023-04-25T15:55:36.343Z,5.28
2023-04-25T15:58:04.146Z,6.22
2023-04-25T16:00:37.184Z,5.38
2023-04-25T16:03:05.324Z,5.00
2023-04-25T16:05:32.455Z,4.60
2023-04-25T16:08:00.391Z,4.07
2023-04-25T16:10:27.912Z,4.47
2023-04-25T16:12:54.793Z,4.15
2023-04-25T16:15:21.714Z,3.92
2023-04-25T16:17:48.754Z,4.18
2023-04-25T16:20:15.766Z,6.32
2023-04-25T16:22:43.853Z,5.25
2023-04-25T16:25:12.149Z,4.45
2023-04-25T16:27:39.633Z,3.78
2023-04-25T16:30:08.620Z,4.40
2023-04-25T16:32:36.446Z,5.28
2023-04-25T16:35:03.468Z,3.92
2023-04-25T16:37:31.107Z,4.05
2023-04-25T16:39:58.007Z,4.57
2023-04-25T16:42:25.491Z,4.78
2023-04-25T16:44:52.286Z,3.60
2023-04-25T16:47:20.395Z,4.55
2023-04-25T16:49:47.544Z,5.93
2023-04-25T16:52:16.061Z,4.30
2023-04-25T16:54:43.048Z,4.90
2023-04-25T16:57:11.301Z,2.40
2023-04-25T16:59:39.046Z,2.83
2023-04-25T17:02:06.149Z,1.98
2023-04-25T17:04:33.097Z,2.17
2023-04-25T17:07:00.106Z,3.53
2023-04-25T17:09:28.784Z,5.68
2023-04-25T17:11:56.344Z,6.05
2023-04-25T17:14:23.227Z,5.30
2023-04-25T17:16:50.085Z,7.03
2023-04-25T17:19:16.988Z,12.23
2023-04-25T17:21:44.581Z,7.07
2023-04-25T17:24:12.189Z,5.97
2023-04-25T17:26:39.273Z,4.20
2023-04-25T17:29:06.033Z,5.88
2023-04-25T17:31:32.877Z,6.18
2023-04-25T17:34:02.334Z,5.13
2023-04-25T17:36:29.279Z,6.05
2023-04-25T17:38:56.041Z,9.57
2023-04-25T17:41:22.862Z,6.25
2023-04-25T17:43:49.662Z,4.32
2023-04-25T17:46:16.572Z,7.40
2023-04-25T17:48:43.325Z,5.53
2023-04-25T17:51:10.156Z,6.05
2023-04-25T17:53:36.961Z,4.95
2023-04-25T17:56:05.258Z,5.50
2023-04-25T17:58:33.587Z,6.28
2023-04-25T18:01:00.381Z,5.20
2023-04-25T18:03:27.597Z,6.20
2023-04-25T18:05:54.767Z,5.05
2023-04-25T18:08:22.724Z,13.35
2023-04-25T18:10:49.712Z,11.80
2023-04-25T18:13:17.334Z,17.17
2023-04-25T18:15:44.706Z,8.38
2023-04-25T18:18:16.331Z,8.07
2023-04-25T18:20:45.309Z,5.70
2023-04-25T18:23:12.731Z,5.88
2023-04-25T18:25:39.489Z,6.20
2023-04-25T18:28:06.228Z,6.70
2023-04-25T18:30:33.013Z,9.07
2023-04-25T18:32:59.867Z,7.30
2023-04-25T18:35:27.851Z,7.53
2023-04-25T18:37:54.704Z,9.85
2023-04-25T18:40:21.505Z,7.18
2023-04-25T18:42:48.937Z,5.82
2023-04-25T18:45:15.994Z,7.13
2023-04-25T18:47:42.860Z,6.68
2023-04-25T18:50:10.287Z,9.73
2023-04-25T18:52:37.306Z,9.10
2023-04-25T18:55:04.882Z,6.53
2023-04-25T18:57:31.722Z,6.00
2023-04-25T18:59:58.964Z,6.25
2023-04-25T19:02:26.229Z,7.70
2023-04-25T19:04:53.206Z,9.90
2023-04-25T19:07:21.004Z,7.38
2023-04-25T19:09:47.974Z,5.65
2023-04-25T19:12:14.851Z,5.53
2023-04-25T19:14:41.867Z,6.10
2023-04-25T19:17:08.764Z,8.98
2023-04-25T19:19:35.580Z,6.20
2023-04-25T19:22:02.615Z,6.63
2023-04-25T19:24:29.507Z,6.40
2023-04-25T19:26:56.374Z,4.65
2023-04-25T19:29:23.128Z,6.10
2023-04-25T19:31:50.028Z,6.93
2023-04-25T19:34:16.798Z,5.60
2023-04-25T19:36:44.223Z,8.02
2023-04-25T19:39:11.172Z,8.50
2023-04-25T19:41:39.110Z,6.00
2023-04-25T19:44:08.317Z,6.30
2023-04-25T19:46:36.890Z,6.88
2023-04-25T19:49:07.240Z,6.72
2023-04-25T19:51:34.895Z,7.30
2023-04-25T19:54:01.698Z,7.38
2023-04-25T19:56:29.676Z,5.43
2023-04-25T19:58:58.433Z,6.43
2023-04-25T20:01:26.279Z,5.55
2023-04-25T20:03:53.441Z,5.90
2023-04-25T20:06:20.676Z,5.32
2023-04-25T20:08:47.478Z,5.28
2023-04-25T20:11:14.963Z,6.07
2023-04-25T20:13:41.986Z,6.90
2023-04-25T20:16:09.067Z,6.78
2023-04-25T20:18:35.891Z,7.03
2023-04-25T20:21:02.775Z,8.38
2023-04-25T20:23:29.737Z,10.95
2023-04-25T20:25:56.544Z,8.05
2023-04-25T20:28:23.409Z,11.30
2023-04-25T20:30:50.432Z,8.38
2023-04-25T20:33:17.498Z,8.70
2023-04-25T20:35:44.388Z,6.93
2023-04-25T20:38:12.112Z,11.40
2023-04-25T20:40:39.028Z,8.18
2023-04-25T20:43:05.992Z,6.10
2023-04-25T20:45:34.581Z,10.27
2023-04-25T20:48:02.751Z,7.38
2023-04-25T20:50:29.655Z,10.23
2023-04-25T20:52:56.427Z,9.10
2023-04-25T20:55:23.158Z,7.78
2023-04-25T20:57:50.432Z,6.60
2023-04-25T21:00:18.907Z,6.80
2023-04-25T21:02:47.120Z,6.60
2023-04-25T21:05:14.143Z,7.28
2023-04-25T21:07:40.902Z,9.70
2023-04-25T21:10:08.145Z,9.68
2023-04-25T21:12:36.169Z,8.90
2023-04-25T21:15:04.200Z,7.05
2023-04-25T21:17:31.029Z,9.02
2023-04-25T21:19:59.367Z,9.05
2023-04-25T21:22:29.167Z,8.52
2023-04-25T21:24:57.228Z,8.68
2023-04-25T21:27:24.146Z,10.05
2023-04-25T21:29:50.973Z,9.45
2023-04-25T21:32:20.880Z,9.43
2023-04-25T21:34:47.651Z,10.10
2023-04-25T21:37:14.477Z,10.27
2023-04-25T21:39:41.292Z,9.43
2023-04-25T21:42:09.147Z,10.05
2023-04-25T21:44:36.447Z,9.98
2023-04-25T21:47:04.809Z,12.43
2023-04-25T21:49:33.033Z,11.20
2023-04-25T21:52:00.330Z,10.70
2023-04-25T21:54:27.288Z,10.02
2023-04-25T21:56:54.379Z,11.65
2023-04-25T21:59:25.315Z,10.98
2023-04-25T22:01:53.106Z,11.95
2023-04-25T22:04:20.675Z,10.40
2023-04-25T22:06:47.744Z,8.57
2023-04-25T22:09:15.391Z,10.40
2023-04-25T22:11:43.427Z,15.80
2023-04-25T22:14:10.790Z,10.32
2023-04-25T22:16:40.926Z,11.55
2023-04-25T22:19:09.594Z,13.05
2023-04-25T22:21:36.661Z,12.68
2023-04-25T22:24:05.093Z,8.75
2023-04-25T22:26:33.545Z,14.27
2023-04-25T22:29:01.517Z,12.98
2023-04-25T22:31:29.047Z,12.38
2023-04-25T22:33:55.889Z,10.27
2023-04-25T22:36:24.056Z,12.57
2023-04-25T22:38:52.701Z,9.48
2023-04-25T22:41:20.471Z,11.00
2023-04-25T22:43:47.450Z,11.27
2023-04-25T22:46:18.946Z,11.23
2023-04-25T22:48:47.701Z,11.80
2023-04-25T22:51:15.649Z,11.07
2023-04-25T22:53:42.875Z,8.98
2023-04-25T22:56:10.217Z,9.48
2023-04-25T22:58:39.902Z,10.38
2023-04-25T23:01:07.381Z,11.23
2023-04-25T23:03:34.482Z,12.05
2023-04-25T23:06:01.646Z,13.75
2023-04-25T23:08:29.144Z,16.25
2023-04-25T23:10:56.012Z,12.18
2023-04-25T23:13:23.348Z,10.77
2023-04-25T23:15:50.195Z,11.68
2023-04-25T23:18:17.348Z,13.07
2023-04-25T23:20:44.224Z,14.20
2023-04-25T23:23:11.152Z,11.75
2023-04-25T23:25:42.557Z,11.77
2023-04-25T23:28:09.697Z,13.27
2023-04-25T23:30:36.496Z,12.20
2023-04-25T23:33:04.387Z,10.52
2023-04-25T23:35:31.416Z,12.18
2023-04-25T23:37:58.524Z,14.13
2023-04-25T23:40:25.761Z,13.70
2023-04-25T23:42:52.661Z,13.63
2023-04-25T23:45:19.611Z,13.88
2023-04-25T23:47:46.890Z,12.75
2023-04-25T23:50:13.733Z,14.60
2023-04-25T23:52:41.036Z,13.50
2023-04-25T23:55:08.063Z,11.52
2023-04-25T23:57:34.873Z,12.90
